Current Weather

Bashur

Bashur, Iraq (ORBR)

Report from: Sunday, November 27, 2022 10:00 AM UTC
Current time: Sunday, December 4, 2022 12:31 PM UTC

Nearby weather
Weather history
Weather forecast

Temperature36.0°C (96.8°F)
Heat index33.3°C (91.9°F)
Dew point-0.0°C (32.0°F)
Winds 16 kts (8.2 m/s, 18.4 mph) Vrb
Winds variableWinds variable from West (260°) to Northwest (320°)
Clouds Sky clear
Altimeter29.77 in.Hg (1008 mB)
Relative humidity10 %
Density altitude2,652 ft. (808 m)
Remarks Ceiling and visibility OK
No significant changes expected in the next two hours
Flight conditions Visual Meteorological Conditions
Raw dataORBR 271000Z 28016KT 260V320 CAVOK 36/M00 Q1008 NOSIG
An error has occurred. This application may no longer respond until reloaded. Reload 🗙